Map

Track Data

SID SEASON NUMBER BASIN SUBBASIN NAME ISO_TIME NATURE LAT LON WMO_WIND WMO_PRES WMO_AGENCY TRACK_TYPE DIST2LAND LANDFALL IFLAG USA_AGENCY USA_ATCF_ID USA_LAT USA_LON USA_RECORD USA_STATUS USA_WIND USA_PRES USA_SSHS USA_R34_NE USA_R34_SE USA_R34_SW USA_R34_NW USA_R50_NE USA_R50_SE USA_R50_SW USA_R50_NW USA_R64_NE USA_R64_SE USA_R64_SW USA_R64_NW USA_POCI USA_ROCI USA_RMW USA_EYE TOKYO_LAT TOKYO_LON TOKYO_GRADE TOKYO_WIND TOKYO_PRES TOKYO_R50_DIR TOKYO_R50_LONG TOKYO_R50_SHORT TOKYO_R30_DIR TOKYO_R30_LONG TOKYO_R30_SHORT TOKYO_LAND CMA_LAT CMA_LON CMA_CAT CMA_WIND CMA_PRES HKO_LAT HKO_LON HKO_CAT HKO_WIND HKO_PRES NEWDELHI_LAT NEWDELHI_LON NEWDELHI_GRADE NEWDELHI_WIND NEWDELHI_PRES NEWDELHI_CI NEWDELHI_DP NEWDELHI_POCI REUNION_LAT REUNION_LON REUNION_TYPE REUNION_WIND REUNION_PRES REUNION_TNUM REUNION_CI REUNION_RMW REUNION_R34_NE REUNION_R34_SE REUNION_R34_SW REUNION_R34_NW REUNION_R50_NE REUNION_R50_SE REUNION_R50_SW REUNION_R50_NW REUNION_R64_NE REUNION_R64_SE REUNION_R64_SW REUNION_R64_NW BOM_LAT BOM_LON BOM_TYPE BOM_WIND BOM_PRES BOM_TNUM BOM_CI BOM_RMW BOM_R34_NE BOM_R34_SE BOM_R34_SW BOM_R34_NW BOM_R50_NE BOM_R50_SE BOM_R50_SW BOM_R50_NW BOM_R64_NE BOM_R64_SE BOM_R64_SW BOM_R64_NW BOM_ROCI BOM_POCI BOM_EYE BOM_POS_METHOD BOM_PRES_METHOD NADI_LAT NADI_LON NADI_CAT NADI_WIND NADI_PRES WELLINGTON_LAT WELLINGTON_LON WELLINGTON_WIND WELLINGTON_PRES DS824_LAT DS824_LON DS824_STAGE DS824_WIND DS824_PRES TD9636_LAT TD9636_LON TD9636_STAGE TD9636_WIND TD9636_PRES TD9635_LAT TD9635_LON TD9635_WIND TD9635_PRES TD9635_ROCI NEUMANN_LAT NEUMANN_LON NEUMANN_CLASS NEUMANN_WIND NEUMANN_PRES MLC_LAT MLC_LON MLC_CLASS MLC_WIND MLC_PRES USA_GUST BOM_GUST BOM_GUST_PER REUNION_GUST REUNION_GUST_PER USA_SEAHGT USA_SEARAD_NE USA_SEARAD_SE USA_SEARAD_SW USA_SEARAD_NW STORM_SPEED STORM_DIR
1973206N13266 1973 73 EP MM FLORENCE 1973-07-25 00:00:00 TS 12.8000 -94.0000 30 hurdat_epa main 272 272 O________OO___ hurdat_epa EP061973 12.8000 -94.0000 TD 30 -1 12.8000 -94.0000 TC 30 12.8000 -94.0000 1 30 8 284
1973206N13266 1973 73 EP MM FLORENCE 1973-07-25 03:00:00 TS 12.8963 -94.4055 main 295 295 P________PP___ EP061973 12.8901 -94.4050 TD 30 -1 12.8901 -94.4050 TC 30 12.9209 -94.4075 1 30 8 285
1973206N13266 1973 73 EP MM FLORENCE 1973-07-25 06:00:00 TS 13.0086 -94.8004 30 hurdat_epa main 318 310 O________OP___ hurdat_epa EP061973 13.0000 -94.8000 TD 30 -1 13.0000 -94.8000 TC 30 13.0432 -94.8021 1 30 8 289
1973206N13266 1973 73 EP MM FLORENCE 1973-07-25 09:00:00 TS 13.1478 -95.1721 main 310 279 P________PP___ EP061973 13.1425 -95.1725 TD 30 -1 13.1425 -95.1725 TC 30 13.1689 -95.1707 1 30 7 293
1973206N13266 1973 73 EP MM FLORENCE 1973-07-25 12:00:00 TS 13.3000 -95.5000 30 hurdat_epa main 279 260 O________OO___ hurdat_epa EP061973 13.3000 -95.5000 TD 30 -1 13.3000 -95.5000 TC 30 13.3000 -95.5000 1 30 7 297
1973206N13266 1973 73 EP MM FLORENCE 1973-07-25 15:00:00 TS 13.4476 -95.7685 main 260 233 P________PP___ EP061973 13.4499 -95.7651 TD 30 -1 13.4499 -95.7651 TC 30 13.4384 -95.7821 1 30 6 301
1973206N13266 1973 73 EP MM FLORENCE 1973-07-25 18:00:00 TS 13.5969 -96.0061 30 hurdat_epa main 233 217 O________OP___ hurdat_epa EP061973 13.6000 -96.0000 TD 30 -1 13.6000 -96.0000 TC 30 13.5846 -96.0303 1 30 6 302
1973206N13266 1973 73 EP MM FLORENCE 1973-07-25 21:00:00 TS 13.7477 -96.2527 main 215 190 P________PP___ EP061973 13.7500 -96.2500 TD 30 -1 13.7500 -96.2500 TC 30 13.7385 -96.2633 1 30 6 302
1973206N13266 1973 73 EP MM FLORENCE 1973-07-26 00:00:00 TS 13.9000 -96.5000 30 hurdat_epa main 190 179 O________OO___ hurdat_epa EP061973 13.9000 -96.5000 TD 30 -1 13.9000 -96.5000 TC 30 13.9000 -96.5000 1 30 6 302
1973206N13266 1973 73 EP MM FLORENCE 1973-07-26 03:00:00 TS 14.0442 -96.7420 main 179 160 P________PP___ EP061973 14.0424 -96.7426 TD 30 -1 14.0424 -96.7426 TC 30 14.0512 -96.7398 1 30 6 302
1973206N13266 1973 73 EP MM FLORENCE 1973-07-26 06:00:00 TS 14.2024 -96.9982 30 hurdat_epa main 162 149 O________OP___ hurdat_epa EP061973 14.2000 -97.0000 TD 30 -1 14.2000 -97.0000 TC 30 14.2120 -96.9907 1 30 6 303
1973206N13266 1973 73 EP MM FLORENCE 1973-07-26 09:00:00 TS 14.3803 -97.2823 main 153 144 P________PP___ EP061973 14.3775 -97.2851 TD 30 -1 14.3775 -97.2851 TC 30 14.3918 -97.2712 1 30 7 304
1973206N13266 1973 73 EP MM FLORENCE 1973-07-26 12:00:00 TS 14.6000 -97.6000 30 hurdat_epa main 148 123 O________OO___ hurdat_epa EP061973 14.6000 -97.6000 TD 30 -1 14.6000 -97.6000 TC 30 14.6000 -97.6000 1 30 8 309
1973206N13266 1973 73 EP MM FLORENCE 1973-07-26 15:00:00 TS 14.8895 -97.9210 main 123 104 P________PP___ EP061973 14.8923 -97.9126 TD 30 -1 14.8923 -97.9126 TC 30 14.8782 -97.9547 1 30 9 311
1973206N13266 1973 73 EP MM FLORENCE 1973-07-26 18:00:00 TS 15.1958 -98.3129 30 hurdat_epa main 104 92 O________OP___ hurdat_epa EP061973 15.2000 -98.3000 TD 30 -1 15.2000 -98.3000 TC 30 15.1790 -98.3645 1 30 10 304
1973206N13266 1973 73 EP MM FLORENCE 1973-07-26 21:00:00 TS 15.4710 -98.8065 main 92 89 P________PP___ EP061973 15.4724 -98.7975 TD 30 -1 15.4724 -98.7975 TC 30 15.4653 -98.8421 1 30 12 296
1973206N13266 1973 73 EP MM FLORENCE 1973-07-27 00:00:00 TS 15.7000 -99.4000 30 hurdat_epa main 108 95 O________OO___ hurdat_epa EP061973 15.7000 -99.4000 TD 30 -1 15.7000 -99.4000 TC 30 15.7000 -99.4000 1 30 13 288
1973206N13266 1973 73 EP MM FLORENCE 1973-07-27 03:00:00 TS 15.8766 -100.069 main 99 99 P________PP___ EP061973 15.8874 -100.070 TD 35 0 15.8874 -100.070 TC 35 15.8333 -100.067 1 33 14 282
1973206N13266 1973 73 EP MM FLORENCE 1973-07-27 06:00:00 TS 15.9822 -100.801 40 hurdat_epa main 127 127 O________OP___ hurdat_epa EP061973 16.0000 -100.800 TS 40 0 16.0000 -100.800 TC 40 15.9112 -100.806 1 37 14 275
1973206N13266 1973 73 EP MM FLORENCE 1973-07-27 09:00:00 TS 16.0036 -101.560 main 154 154 P________PP___ EP061973 16.0150 -101.558 TS 42 0 16.0150 -101.558 TC 42 15.9583 -101.567 1 41 14 271
1973206N13266 1973 73 EP MM FLORENCE 1973-07-27 12:00:00 TS 16.0000 -102.300 45 hurdat_epa main 193 193 O________OO___ hurdat_epa EP061973 16.0000 -102.300 TS 45 0 16.0000 -102.300 TC 45 16.0000 -102.300 2 45 14 272
1973206N13266 1973 73 EP MM FLORENCE 1973-07-27 15:00:00 TS 16.0419 -102.978 main 225 218 P________PP___ EP061973 16.0348 -102.980 TS 47 0 16.0348 -102.980 TC 47 16.0705 -102.968 2 47 13 275
1973206N13266 1973 73 EP MM FLORENCE 1973-07-27 18:00:00 TS 16.1084 -103.600 50 hurdat_epa main 235 235 O________OP___ hurdat_epa EP061973 16.1000 -103.600 TS 50 0 16.1000 -103.600 TC 50 16.1420 -103.598 2 50 12 278
1973206N13266 1973 73 EP MM FLORENCE 1973-07-27 21:00:00 TS 16.1974 -104.186 main 246 246 P________PP___ EP061973 16.1924 -104.187 TS 52 0 16.1924 -104.187 TC 52 16.2176 -104.178 2 52 11 280
1973206N13266 1973 73 EP MM FLORENCE 1973-07-28 00:00:00 TS 16.3000 -104.700 55 995 hurdat_epa main 257 257 O________OO___ hurdat_epa EP061973 16.3000 -104.700 TS 55 995 0 16.3000 -104.700 TC 55 995 16.3000 -104.700 2 55 9 282
1973206N13266 1973 73 EP MM FLORENCE 1973-07-28 03:00:00 TS 16.3934 -105.131 main 272 272 P________PP___ EP061973 16.3998 -105.123 TS 55 0 16.3998 -105.123 TC 55 16.3677 -105.166 2 55 8 284
1973206N13266 1973 73 EP MM FLORENCE 1973-07-28 06:00:00 TS 16.4893 -105.515 55 hurdat_epa main 292 292 O________OP___ hurdat_epa EP061973 16.5000 -105.500 TS 55 0 16.5000 -105.500 TC 55 16.4466 -105.576 2 55 8 283
1973206N13266 1973 73 EP MM FLORENCE 1973-07-28 09:00:00 TS 16.5724 -105.916 main 313 313 P________PP___ EP061973 16.5775 -105.908 TS 55 0 16.5775 -105.908 TC 55 16.5522 -105.947 2 55 8 286
1973206N13266 1973 73 EP MM FLORENCE 1973-07-28 12:00:00 TS 16.7000 -106.300 55 hurdat_epa main 321 317 O________OO___ hurdat_epa EP061973 16.7000 -106.300 TS 55 0 16.7000 -106.300 TC 55 16.7000 -106.300 2 55 8 296
1973206N13266 1973 73 EP MM FLORENCE 1973-07-28 15:00:00 TS 16.9240 -106.653 main 326 316 P________PP___ EP061973 16.9274 -106.657 TS 57 0 16.9274 -106.657 TC 57 16.9103 -106.636 2 58 8 307
1973206N13266 1973 73 EP MM FLORENCE 1973-07-28 18:00:00 TS 17.1923 -106.993 60 hurdat_epa main 322 322 O________OP___ hurdat_epa EP061973 17.2000 -107.000 TS 60 0 17.2000 -107.000 TC 60 17.1615 -106.963 2 62 8 309
1973206N13266 1973 73 EP MM FLORENCE 1973-07-28 21:00:00 TS 17.4462 -107.324 main 330 322 P________PP___ EP061973 17.4498 -107.328 TS 65 1 17.4498 -107.328 TC 65 17.4320 -107.308 2 66 8 307
1973206N13266 1973 73 EP MM FLORENCE 1973-07-29 00:00:00 TS 17.7000 -107.700 70 hurdat_epa main 337 337 O________OO___ hurdat_epa EP061973 17.7000 -107.700 HU 70 1 17.7000 -107.700 TC 70 17.7000 -107.700 4 70 10 302
1973206N13266 1973 73 EP MM FLORENCE 1973-07-29 03:00:00 TS 17.9565 -108.173 main 359 359 P________PP___ EP061973 17.9575 -108.170 HU 72 1 17.9575 -108.170 TC 72 17.9529 -108.187 4 72 11 298
1973206N13266 1973 73 EP MM FLORENCE 1973-07-29 06:00:00 TS 18.1991 -108.704 75 hurdat_epa main 391 391 O________OP___ hurdat_epa EP061973 18.2000 -108.700 HU 75 1 18.2000 -108.700 TC 75 18.1955 -108.719 4 75 11 294
1973206N13266 1973 73 EP MM FLORENCE 1973-07-29 09:00:00 TS 18.4211 -109.260 main 437 437 P________PP___ EP061973 18.4225 -109.257 HU 77 1 18.4225 -109.257 TC 77 18.4153 -109.268 4 77 11 291
1973206N13266 1973 73 EP MM FLORENCE 1973-07-29 12:00:00 TS 18.6000 -109.800 80 hurdat_epa main 474 469 O________OO___ hurdat_epa EP061973 18.6000 -109.800 HU 80 1 18.6000 -109.800 TC 80 18.6000 -109.800 4 80 10 287
1973206N13266 1973 73 EP MM FLORENCE 1973-07-29 15:00:00 TS 18.7156 -110.265 main 470 460 P________PP___ EP061973 18.7148 -110.265 HU 70 1 18.7148 -110.265 TC 70 18.7189 -110.265 4 68 9 283
1973206N13266 1973 73 EP MM FLORENCE 1973-07-29 18:00:00 TS 18.8013 -110.702 60 1006 hurdat_epa main 464 459 O________OP___ hurdat_epa EP061973 18.8000 -110.700 TS 60 1006 0 18.8000 -110.700 TC 60 1006 18.8065 -110.709 4 57 9 282
1973206N13266 1973 73 EP MM FLORENCE 1973-07-29 21:00:00 TS 18.8860 -111.144 main 461 459 P________PP___ EP061973 18.8848 -111.143 TS 47 0 18.8848 -111.143 TC 47 18.8908 -111.149 4 46 9 283
1973206N13266 1973 73 EP MM FLORENCE 1973-07-30 00:00:00 TS 19.0000 -111.600 35 hurdat_epa main 466 462 O________OO___ hurdat_epa EP061973 19.0000 -111.600 TS 35 0 19.0000 -111.600 TC 35 19.0000 -111.600 2 35 9 288
1973206N13266 1973 73 EP MM FLORENCE 1973-07-30 03:00:00 TS 19.1789 -112.089 main 467 467 P________PP___ EP061973 19.1849 -112.092 TS 32 -1 19.1849 -112.092 TC 32 19.1550 -112.075 2 32 10 293
1973206N13266 1973 73 EP MM FLORENCE 1973-07-30 06:00:00 TS 19.3898 -112.594 30 hurdat_epa main 475 475 O________OP___ hurdat_epa EP061973 19.4000 -112.600 TD 30 -1 19.4000 -112.600 TC 30 19.3490 -112.571 2 30 10 294
1973206N13266 1973 73 EP MM FLORENCE 1973-07-30 09:00:00 TS 19.5979 -113.098 main 489 487 P________PP___ EP061973 19.6052 -113.102 TD 27 -1 19.6052 -113.102 TC 27 19.5685 -113.081 2 27 10 293
1973206N13266 1973 73 EP MM FLORENCE 1973-07-30 12:00:00 TS 19.8000 -113.600 25 hurdat_epa main 508 O________OO___ hurdat_epa EP061973 19.8000 -113.600 TD 25 -1 19.8000 -113.600 TC 25 19.8000 -113.600 1 25 10 293

About IBTrACS Database

This database is a web-friendly format of International Best Track Archive for Climate Stewardship (IBTrACS), a global best track data archive curated by NOAA dating back to 1842.

Updated: 2021-11-26